LDA322 UUDD-UWGG
Flight info
| Callsign | LDA322 |
|---|---|
| Flight time | N/A |
| Altitude | 35000 |
| Route | KOGOM4Q KOGOM L94 USTOK USTOK2P |
| Aircraft | B736/M-SDE2E3FGHIRWXY/LB1 |
Departure
| Time | N/A |
|---|---|
| Airport | Domodedovo International Airport (UUDD) |
Arrival
| Time | 2026-04-25 09:44 |
|---|---|
| Airport | Nizhny Novgorod / Strigino International Airport (UWGG) |
| Time | Latitude | Longitude | Altitude | Speed | Heading |
|---|---|---|---|---|---|
| 2026-04-25 09:07 | 55.63996 | 38.64779 | 16166 ft | 351 kts | 54° |
| 2026-04-25 09:08 | 55.65238 | 38.68533 | 16621 ft | 355 kts | 54° |
| 2026-04-25 09:08 | 55.66485 | 38.72316 | 16668 ft | 355 kts | 54° |
| 2026-04-25 09:08 | 55.67720 | 38.76075 | 16671 ft | 351 kts | 54° |
| 2026-04-25 09:08 | 55.68945 | 38.79804 | 16680 ft | 350 kts | 54° |
| 2026-04-25 09:09 | 55.70173 | 38.83533 | 16681 ft | 351 kts | 54° |
| 2026-04-25 09:09 | 55.71400 | 38.87269 | 16686 ft | 352 kts | 54° |
| 2026-04-25 09:09 | 55.72630 | 38.91028 | 16676 ft | 353 kts | 54° |
| 2026-04-25 09:09 | 55.73966 | 38.94669 | 16690 ft | 350 kts | 44° |
| 2026-04-25 09:10 | 55.75621 | 38.97793 | 17388 ft | 351 kts | 39° |
| 2026-04-25 09:10 | 55.77345 | 39.00900 | 18393 ft | 350 kts | 39° |
| 2026-04-25 09:10 | 55.79046 | 39.04003 | 19221 ft | 353 kts | 39° |
| 2026-04-25 09:10 | 55.80758 | 39.07186 | 19986 ft | 358 kts | 40° |
| 2026-04-25 09:11 | 55.84206 | 39.13700 | 20682 ft | 363 kts | 41° |
| 2026-04-25 09:11 | 55.85711 | 39.17389 | 20684 ft | 380 kts | 55° |
| 2026-04-25 09:11 | 55.86936 | 39.21690 | 21050 ft | 395 kts | 58° |
| 2026-04-25 09:12 | 55.88130 | 39.26132 | 21753 ft | 400 kts | 58° |
| 2026-04-25 09:12 | 55.89329 | 39.30616 | 22566 ft | 403 kts | 58° |
| 2026-04-25 09:12 | 55.90539 | 39.35087 | 23296 ft | 406 kts | 58° |
| 2026-04-25 09:12 | 55.91801 | 39.39684 | 23868 ft | 412 kts | 58° |
| 2026-04-25 09:13 | 55.93075 | 39.44288 | 24456 ft | 417 kts | 58° |
| 2026-04-25 09:13 | 55.94368 | 39.48953 | 25038 ft | 421 kts | 58° |
| 2026-04-25 09:13 | 55.95673 | 39.53661 | 25615 ft | 426 kts | 58° |
| 2026-04-25 09:13 | 55.96994 | 39.58429 | 26181 ft | 431 kts | 58° |
| 2026-04-25 09:14 | 55.98319 | 39.63230 | 26782 ft | 435 kts | 58° |
| 2026-04-25 09:14 | 55.99670 | 39.68122 | 27343 ft | 438 kts | 57° |
| 2026-04-25 09:14 | 56.01082 | 39.72965 | 27876 ft | 442 kts | 56° |
| 2026-04-25 09:14 | 56.02536 | 39.77834 | 28389 ft | 446 kts | 56° |
| 2026-04-25 09:15 | 56.04001 | 39.82741 | 28974 ft | 448 kts | 56° |
| 2026-04-25 09:15 | 56.05441 | 39.87610 | 29698 ft | 447 kts | 56° |
| 2026-04-25 09:15 | 56.06904 | 39.92587 | 30354 ft | 446 kts | 56° |
| 2026-04-25 09:15 | 56.08340 | 39.97489 | 31008 ft | 444 kts | 56° |
| 2026-04-25 09:16 | 56.09750 | 40.02314 | 31583 ft | 442 kts | 57° |
| 2026-04-25 09:16 | 56.11178 | 40.07199 | 32107 ft | 443 kts | 57° |
| 2026-04-25 09:16 | 56.12605 | 40.12089 | 32619 ft | 443 kts | 57° |
| 2026-04-25 09:16 | 56.14038 | 40.17015 | 32654 ft | 447 kts | 57° |
| 2026-04-25 09:17 | 56.18283 | 40.31664 | 32668 ft | 438 kts | 56° |
| 2026-04-25 09:18 | 56.21086 | 40.41366 | 32661 ft | 437 kts | 56° |
| 2026-04-25 09:18 | 56.23870 | 40.51056 | 32652 ft | 436 kts | 57° |
| 2026-04-25 09:19 | 56.25929 | 40.61390 | 32664 ft | 449 kts | 75° |
| 2026-04-25 09:19 | 56.26209 | 40.66995 | 32672 ft | 449 kts | 86° |
| 2026-04-25 09:19 | 56.26040 | 40.72540 | 32643 ft | 437 kts | 89° |
| 2026-04-25 09:19 | 56.25787 | 40.77894 | 32628 ft | 423 kts | 90° |
| 2026-04-25 09:20 | 56.25523 | 40.83066 | 32625 ft | 410 kts | 90° |
| 2026-04-25 09:20 | 56.25272 | 40.88098 | 32624 ft | 396 kts | 90° |
| 2026-04-25 09:20 | 56.25039 | 40.93009 | 32185 ft | 397 kts | 89° |
| 2026-04-25 09:20 | 56.24818 | 40.98002 | 31351 ft | 407 kts | 89° |
| 2026-04-25 09:21 | 56.24598 | 41.03226 | 30092 ft | 430 kts | 89° |
| 2026-04-25 09:21 | 56.24369 | 41.08701 | 28926 ft | 446 kts | 89° |
| 2026-04-25 09:21 | 56.24126 | 41.14274 | 28251 ft | 445 kts | 89° |
| 2026-04-25 09:21 | 56.23877 | 41.19776 | 27852 ft | 438 kts | 89° |
| 2026-04-25 09:22 | 56.23628 | 41.25193 | 27455 ft | 431 kts | 89° |
| 2026-04-25 09:22 | 56.23383 | 41.30529 | 26955 ft | 427 kts | 88° |
| 2026-04-25 09:22 | 56.23140 | 41.35838 | 26405 ft | 423 kts | 89° |
| 2026-04-25 09:22 | 56.22902 | 41.40978 | 25796 ft | 415 kts | 89° |
| 2026-04-25 09:23 | 56.22661 | 41.46199 | 24978 ft | 412 kts | 89° |
| 2026-04-25 09:23 | 56.22423 | 41.51317 | 24281 ft | 409 kts | 89° |
| 2026-04-25 09:23 | 56.22186 | 41.56397 | 23801 ft | 408 kts | 89° |
| 2026-04-25 09:23 | 56.21947 | 41.61461 | 23351 ft | 405 kts | 89° |
| 2026-04-25 09:24 | 56.21711 | 41.66419 | 22872 ft | 403 kts | 89° |
| 2026-04-25 09:24 | 56.21470 | 41.71424 | 22359 ft | 400 kts | 89° |
| 2026-04-25 09:24 | 56.21228 | 41.76378 | 21900 ft | 396 kts | 89° |
| 2026-04-25 09:24 | 56.20986 | 41.81287 | 21455 ft | 392 kts | 89° |
| 2026-04-25 09:25 | 56.20747 | 41.86130 | 21022 ft | 388 kts | 89° |
| 2026-04-25 09:25 | 56.20508 | 41.90929 | 20587 ft | 384 kts | 89° |
| 2026-04-25 09:25 | 56.20270 | 41.95691 | 20155 ft | 381 kts | 89° |
| 2026-04-25 09:25 | 56.20034 | 42.00403 | 19727 ft | 378 kts | 89° |
| 2026-04-25 09:26 | 56.19873 | 42.03569 | 19445 ft | 375 kts | 89° |
| 2026-04-25 09:26 | 56.19636 | 42.08154 | 19030 ft | 372 kts | 89° |
| 2026-04-25 09:26 | 56.19395 | 42.12818 | 18609 ft | 369 kts | 90° |
| 2026-04-25 09:26 | 56.19156 | 42.17335 | 18195 ft | 367 kts | 90° |
| 2026-04-25 09:27 | 56.18912 | 42.21876 | 17752 ft | 364 kts | 90° |
| 2026-04-25 09:27 | 56.18670 | 42.26375 | 17283 ft | 361 kts | 90° |
| 2026-04-25 09:27 | 56.18444 | 42.30561 | 16897 ft | 357 kts | 90° |
| 2026-04-25 09:27 | 56.18215 | 42.34778 | 16496 ft | 353 kts | 91° |
| 2026-04-25 09:28 | 56.17977 | 42.39146 | 16078 ft | 350 kts | 91° |
| 2026-04-25 09:28 | 56.17740 | 42.43470 | 15685 ft | 346 kts | 91° |
| 2026-04-25 09:28 | 56.17505 | 42.47747 | 15277 ft | 343 kts | 92° |
| 2026-04-25 09:28 | 56.17271 | 42.51995 | 14874 ft | 341 kts | 92° |
| 2026-04-25 09:29 | 56.17036 | 42.56222 | 14477 ft | 339 kts | 92° |
| 2026-04-25 09:29 | 56.16800 | 42.60423 | 14077 ft | 338 kts | 93° |
| 2026-04-25 09:29 | 56.16564 | 42.64607 | 13683 ft | 336 kts | 93° |
| 2026-04-25 09:29 | 56.16329 | 42.68764 | 13261 ft | 334 kts | 93° |
| 2026-04-25 09:30 | 56.16093 | 42.72897 | 12822 ft | 332 kts | 94° |
| 2026-04-25 09:30 | 56.15856 | 42.77000 | 12425 ft | 329 kts | 94° |
| 2026-04-25 09:30 | 56.15621 | 42.81059 | 12029 ft | 326 kts | 94° |
| 2026-04-25 09:30 | 56.15387 | 42.85085 | 11645 ft | 323 kts | 94° |
| 2026-04-25 09:31 | 56.15154 | 42.89078 | 11247 ft | 321 kts | 94° |
| 2026-04-25 09:31 | 56.14922 | 42.93043 | 10858 ft | 318 kts | 94° |
| 2026-04-25 09:31 | 56.14690 | 42.96976 | 10481 ft | 316 kts | 94° |
| 2026-04-25 09:31 | 56.14458 | 43.00882 | 10092 ft | 314 kts | 94° |
| 2026-04-25 09:32 | 56.14229 | 43.04745 | 9815 ft | 308 kts | 94° |
| 2026-04-25 09:32 | 56.14008 | 43.08453 | 9694 ft | 298 kts | 94° |
| 2026-04-25 09:32 | 56.13784 | 43.12127 | 9543 ft | 289 kts | 94° |
| 2026-04-25 09:32 | 56.13567 | 43.15690 | 9205 ft | 287 kts | 94° |
| 2026-04-25 09:33 | 56.13344 | 43.19179 | 8904 ft | 284 kts | 98° |
| 2026-04-25 09:33 | 56.12619 | 43.22440 | 8606 ft | 282 kts | 127° |
| 2026-04-25 09:33 | 56.11275 | 43.24951 | 8332 ft | 278 kts | 140° |
| 2026-04-25 09:33 | 56.09786 | 43.27218 | 8008 ft | 277 kts | 142° |
| 2026-04-25 09:34 | 56.08316 | 43.29413 | 7696 ft | 275 kts | 142° |
| 2026-04-25 09:34 | 56.06878 | 43.31574 | 7388 ft | 273 kts | 142° |
| 2026-04-25 09:34 | 56.05432 | 43.33765 | 7091 ft | 272 kts | 141° |
| 2026-04-25 09:34 | 56.04000 | 43.35952 | 6787 ft | 271 kts | 142° |
| 2026-04-25 09:35 | 56.02573 | 43.38129 | 6504 ft | 269 kts | 141° |
| 2026-04-25 09:35 | 56.01154 | 43.40299 | 6208 ft | 268 kts | 142° |
| 2026-04-25 09:35 | 55.99738 | 43.42461 | 5913 ft | 267 kts | 141° |
| 2026-04-25 09:35 | 55.98514 | 43.44928 | 5557 ft | 269 kts | 116° |
| 2026-04-25 09:36 | 55.97982 | 43.48076 | 5276 ft | 265 kts | 101° |
| 2026-04-25 09:36 | 55.97598 | 43.51322 | 5017 ft | 267 kts | 101° |
| 2026-04-25 09:36 | 55.97204 | 43.54578 | 4755 ft | 270 kts | 102° |
| 2026-04-25 09:36 | 55.96797 | 43.57868 | 4502 ft | 273 kts | 102° |
| 2026-04-25 09:37 | 55.96387 | 43.61187 | 4311 ft | 272 kts | 101° |
| 2026-04-25 09:37 | 55.96343 | 43.64472 | 4220 ft | 261 kts | 73° |
| 2026-04-25 09:37 | 55.97151 | 43.67233 | 4083 ft | 244 kts | 44° |
| 2026-04-25 09:37 | 55.98422 | 43.69092 | 3982 ft | 229 kts | 24° |
| 2026-04-25 09:38 | 55.99849 | 43.70116 | 3874 ft | 215 kts | 9° |
| 2026-04-25 09:38 | 56.01267 | 43.70667 | 3776 ft | 203 kts | 6° |
| 2026-04-25 09:38 | 56.02619 | 43.71135 | 3725 ft | 193 kts | 6° |
| 2026-04-25 09:38 | 56.03893 | 43.71598 | 3591 ft | 181 kts | 5° |
| 2026-04-25 09:39 | 56.05073 | 43.72030 | 3418 ft | 165 kts | 5° |
| 2026-04-25 09:39 | 56.06155 | 43.72425 | 3211 ft | 152 kts | 5° |
| 2026-04-25 09:39 | 56.07122 | 43.72783 | 3095 ft | 131 kts | 5° |
| 2026-04-25 09:40 | 56.08906 | 43.73429 | 2814 ft | 130 kts | 4° |
| 2026-04-25 09:40 | 56.09775 | 43.73748 | 2638 ft | 125 kts | 4° |
| 2026-04-25 09:40 | 56.10612 | 43.74058 | 2482 ft | 121 kts | 2° |
| 2026-04-25 09:40 | 56.11444 | 43.74360 | 2329 ft | 122 kts | 3° |
| 2026-04-25 09:41 | 56.12278 | 43.74663 | 2165 ft | 122 kts | 1° |
| 2026-04-25 09:41 | 56.13099 | 43.74965 | 2006 ft | 121 kts | 4° |
| 2026-04-25 09:41 | 56.13920 | 43.75272 | 1834 ft | 120 kts | 3° |
| 2026-04-25 09:41 | 56.14731 | 43.75566 | 1685 ft | 118 kts | 2° |
| 2026-04-25 09:42 | 56.15547 | 43.75863 | 1537 ft | 121 kts | 2° |
| 2026-04-25 09:42 | 56.16373 | 43.76166 | 1376 ft | 122 kts | 4° |
| 2026-04-25 09:42 | 56.17200 | 43.76468 | 1183 ft | 118 kts | 4° |
| 2026-04-25 09:42 | 56.18006 | 43.76766 | 1075 ft | 120 kts | 4° |
| 2026-04-25 09:43 | 56.18838 | 43.77069 | 889 ft | 121 kts | 4° |
| 2026-04-25 09:43 | 56.19658 | 43.77369 | 713 ft | 121 kts | 8° |
| 2026-04-25 09:43 | 56.20478 | 43.77706 | 526 ft | 120 kts | 9° |
| 2026-04-25 09:43 | 56.21303 | 43.77994 | 337 ft | 121 kts | 6° |
| 2026-04-25 09:44 | 56.22124 | 43.78280 | 269 ft | 121 kts | 9° |
| 2026-04-25 09:44 | 56.22904 | 43.78534 | 266 ft | 91 kts | 12° |
| 2026-04-25 09:44 | 56.23316 | 43.78689 | 265 ft | 35 kts | 11° |
| 2026-04-25 09:44 | 56.23497 | 43.78767 | 263 ft | 26 kts | 12° |
| 2026-04-25 09:45 | 56.23567 | 43.78967 | 265 ft | 23 kts | 118° |
| 2026-04-25 09:45 | 56.23483 | 43.79200 | 265 ft | 22 kts | 152° |
| 2026-04-25 09:45 | 56.23334 | 43.79172 | 265 ft | 21 kts | 190° |
| 2026-04-25 09:45 | 56.23188 | 43.79117 | 265 ft | 21 kts | 191° |
| 2026-04-25 09:46 | 56.23044 | 43.79064 | 265 ft | 21 kts | 191° |
| 2026-04-25 09:46 | 56.22904 | 43.79012 | 265 ft | 20 kts | 192° |
| 2026-04-25 09:46 | 56.22768 | 43.78962 | 265 ft | 20 kts | 192° |
| 2026-04-25 09:46 | 56.22637 | 43.78914 | 265 ft | 19 kts | 191° |
| 2026-04-25 09:47 | 56.22509 | 43.78867 | 265 ft | 18 kts | 191° |
| 2026-04-25 09:47 | 56.22390 | 43.78798 | 265 ft | 18 kts | 194° |
| 2026-04-25 09:47 | 56.22272 | 43.78755 | 265 ft | 17 kts | 192° |
| 2026-04-25 09:47 | 56.22158 | 43.78713 | 265 ft | 15 kts | 191° |
| 2026-04-25 09:48 | 56.22057 | 43.78675 | 265 ft | 13 kts | 191° |
| 2026-04-25 09:48 | 56.21971 | 43.78674 | 265 ft | 13 kts | 139° |
| 2026-04-25 09:48 | 56.21912 | 43.78776 | 265 ft | 10 kts | 106° |
| 2026-04-25 09:48 | 56.21905 | 43.78832 | 265 ft | 4 kts | 101° |
| 2026-04-25 09:49 | 56.21905 | 43.78835 | 265 ft | 0 kts | 101° |